sensor_id;sensor_type;location;lat;lon;timestamp;P1;durP1;ratioP1;P2;durP2;ratioP2
22046;SDS011;11187;49.412;20.956;2022-12-18T00:01:56;77.28;;;32.97;;
22046;SDS011;11187;49.412;20.956;2022-12-18T00:04:51;86.18;;;34.05;;
22046;SDS011;11187;49.412;20.956;2022-12-18T00:07:25;85.25;;;35.45;;
22046;SDS011;11187;49.412;20.956;2022-12-18T00:10:11;83.38;;;34.92;;
22046;SDS011;11187;49.412;20.956;2022-12-18T00:12:45;77.32;;;34.40;;
22046;SDS011;11187;49.412;20.956;2022-12-18T00:15:33;83.10;;;33.30;;
22046;SDS011;11187;49.412;20.956;2022-12-18T00:18:07;88.43;;;35.20;;
22046;SDS011;11187;49.412;20.956;2022-12-18T00:20:59;82.80;;;35.88;;
22046;SDS011;11187;49.412;20.956;2022-12-18T00:23:34;90.30;;;38.03;;
22046;SDS011;11187;49.412;20.956;2022-12-18T00:26:29;94.10;;;34.63;;
22046;SDS011;11187;49.412;20.956;2022-12-18T00:29:24;90.85;;;34.53;;
22046;SDS011;11187;49.412;20.956;2022-12-18T00:31:58;78.43;;;33.80;;
22046;SDS011;11187;49.412;20.956;2022-12-18T00:34:44;75.35;;;32.45;;
22046;SDS011;11187;49.412;20.956;2022-12-18T00:37:18;92.47;;;35.78;;
22046;SDS011;11187;49.412;20.956;2022-12-18T00:40:04;90.68;;;34.45;;
22046;SDS011;11187;49.412;20.956;2022-12-18T00:42:38;86.85;;;34.42;;
22046;SDS011;11187;49.412;20.956;2022-12-18T00:45:36;69.68;;;30.05;;
22046;SDS011;11187;49.412;20.956;2022-12-18T00:48:10;78.97;;;33.00;;
22046;SDS011;11187;49.412;20.956;2022-12-18T00:51:03;88.32;;;33.83;;
22046;SDS011;11187;49.412;20.956;2022-12-18T00:53:57;84.18;;;32.55;;
22046;SDS011;11187;49.412;20.956;2022-12-18T00:56:51;92.80;;;35.10;;
22046;SDS011;11187;49.412;20.956;2022-12-18T00:59:28;81.97;;;33.00;;
22046;SDS011;11187;49.412;20.956;2022-12-18T01:02:24;71.10;;;32.63;;
22046;SDS011;11187;49.412;20.956;2022-12-18T01:05:18;72.57;;;31.42;;
22046;SDS011;11187;49.412;20.956;2022-12-18T01:07:52;75.55;;;32.85;;
22046;SDS011;11187;49.412;20.956;2022-12-18T01:10:41;78.18;;;33.28;;
22046;SDS011;11187;49.412;20.956;2022-12-18T01:13:15;76.60;;;32.20;;
22046;SDS011;11187;49.412;20.956;2022-12-18T01:16:01;81.20;;;34.22;;
22046;SDS011;11187;49.412;20.956;2022-12-18T01:18:35;73.85;;;33.25;;
22046;SDS011;11187;49.412;20.956;2022-12-18T01:21:21;69.75;;;32.28;;
22046;SDS011;11187;49.412;20.956;2022-12-18T01:23:56;86.00;;;33.45;;
22046;SDS011;11187;49.412;20.956;2022-12-18T01:26:50;75.63;;;33.00;;
22046;SDS011;11187;49.412;20.956;2022-12-18T01:29:44;77.72;;;32.08;;
22046;SDS011;11187;49.412;20.956;2022-12-18T01:32:18;71.88;;;29.98;;
22046;SDS011;11187;49.412;20.956;2022-12-18T01:35:04;71.82;;;31.95;;
22046;SDS011;11187;49.412;20.956;2022-12-18T01:37:39;71.82;;;32.17;;
22046;SDS011;11187;49.412;20.956;2022-12-18T01:40:25;66.30;;;29.73;;
22046;SDS011;11187;49.412;20.956;2022-12-18T01:42:59;71.68;;;29.00;;
22046;SDS011;11187;49.412;20.956;2022-12-18T01:45:38;61.08;;;28.52;;
22046;SDS011;11187;49.412;20.956;2022-12-18T01:48:18;63.75;;;30.08;;
22046;SDS011;11187;49.412;20.956;2022-12-18T01:50:52;70.32;;;28.88;;
22046;SDS011;11187;49.412;20.956;2022-12-18T01:53:39;64.65;;;29.50;;
22046;SDS011;11187;49.412;20.956;2022-12-18T01:56:18;69.57;;;28.25;;
22046;SDS011;11187;49.412;20.956;2022-12-18T01:59:14;70.05;;;28.67;;
22046;SDS011;11187;49.412;20.956;2022-12-18T02:02:08;64.28;;;27.70;;
22046;SDS011;11187;49.412;20.956;2022-12-18T02:04:43;73.82;;;28.70;;
22046;SDS011;11187;49.412;20.956;2022-12-18T02:07:45;66.10;;;30.92;;
22046;SDS011;11187;49.412;20.956;2022-12-18T02:10:31;59.85;;;27.08;;
22046;SDS011;11187;49.412;20.956;2022-12-18T02:16:47;68.70;;;28.58;;
22046;SDS011;11187;49.412;20.956;2022-12-18T02:22:26;64.80;;;28.95;;
22046;SDS011;11187;49.412;20.956;2022-12-18T02:28:31;50.92;;;25.83;;
22046;SDS011;11187;49.412;20.956;2022-12-18T02:31:31;50.63;;;27.10;;
22046;SDS011;11187;49.412;20.956;2022-12-18T02:34:30;56.05;;;27.48;;
22046;SDS011;11187;49.412;20.956;2022-12-18T02:37:25;55.03;;;28.27;;
22046;SDS011;11187;49.412;20.956;2022-12-18T02:40:01;57.53;;;26.80;;
22046;SDS011;11187;49.412;20.956;2022-12-18T02:42:50;52.58;;;29.00;;
22046;SDS011;11187;49.412;20.956;2022-12-18T02:45:24;58.78;;;26.25;;
22046;SDS011;11187;49.412;20.956;2022-12-18T02:48:10;61.90;;;27.70;;
22046;SDS011;11187;49.412;20.956;2022-12-18T02:53:58;63.92;;;27.05;;
22046;SDS011;11187;49.412;20.956;2022-12-18T02:56:44;58.83;;;28.25;;
22046;SDS011;11187;49.412;20.956;2022-12-18T02:59:41;55.58;;;27.58;;
22046;SDS011;11187;49.412;20.956;2022-12-18T03:02:26;59.58;;;28.75;;
22046;SDS011;11187;49.412;20.956;2022-12-18T03:05:29;55.67;;;26.10;;
22046;SDS011;11187;49.412;20.956;2022-12-18T03:08:13;48.55;;;27.25;;
22046;SDS011;11187;49.412;20.956;2022-12-18T03:11:12;51.30;;;25.00;;
22046;SDS011;11187;49.412;20.956;2022-12-18T03:14:30;58.08;;;26.83;;
22046;SDS011;11187;49.412;20.956;2022-12-18T03:17:07;48.10;;;25.80;;
22046;SDS011;11187;49.412;20.956;2022-12-18T03:19:58;43.75;;;26.58;;
22046;SDS011;11187;49.412;20.956;2022-12-18T03:22:36;56.58;;;25.45;;
22046;SDS011;11187;49.412;20.956;2022-12-18T03:25:24;53.13;;;28.88;;
22046;SDS011;11187;49.412;20.956;2022-12-18T03:28:00;52.58;;;29.60;;
22046;SDS011;11187;49.412;20.956;2022-12-18T03:30:57;46.20;;;26.63;;
22046;SDS011;11187;49.412;20.956;2022-12-18T03:33:45;60.30;;;29.13;;
22046;SDS011;11187;49.412;20.956;2022-12-18T03:36:43;47.92;;;25.80;;
22046;SDS011;11187;49.412;20.956;2022-12-18T03:39:17;60.40;;;26.25;;
22046;SDS011;11187;49.412;20.956;2022-12-18T03:42:15;65.38;;;26.67;;
22046;SDS011;11187;49.412;20.956;2022-12-18T03:48:31;58.88;;;24.60;;
22046;SDS011;11187;49.412;20.956;2022-12-18T03:51:18;47.40;;;25.08;;
22046;SDS011;11187;49.412;20.956;2022-12-18T03:54:13;57.25;;;26.45;;
22046;SDS011;11187;49.412;20.956;2022-12-18T03:56:48;52.90;;;26.70;;
22046;SDS011;11187;49.412;20.956;2022-12-18T03:59:44;53.67;;;27.52;;
22046;SDS011;11187;49.412;20.956;2022-12-18T04:02:19;56.70;;;26.40;;
22046;SDS011;11187;49.412;20.956;2022-12-18T04:05:09;49.35;;;26.50;;
22046;SDS011;11187;49.412;20.956;2022-12-18T04:07:45;57.25;;;27.00;;
22046;SDS011;11187;49.412;20.956;2022-12-18T04:10:33;58.83;;;28.13;;
22046;SDS011;11187;49.412;20.956;2022-12-18T04:13:07;51.78;;;24.63;;
22046;SDS011;11187;49.412;20.956;2022-12-18T04:16:00;56.08;;;24.13;;
22046;SDS011;11187;49.412;20.956;2022-12-18T04:18:55;59.67;;;27.45;;
22046;SDS011;11187;49.412;20.956;2022-12-18T04:21:49;46.13;;;25.88;;
22046;SDS011;11187;49.412;20.956;2022-12-18T04:24:23;56.28;;;25.55;;
22046;SDS011;11187;49.412;20.956;2022-12-18T04:27:16;49.83;;;24.65;;
22046;SDS011;11187;49.412;20.956;2022-12-18T04:30:10;54.53;;;26.77;;
22046;SDS011;11187;49.412;20.956;2022-12-18T04:33:08;44.95;;;24.70;;
22046;SDS011;11187;49.412;20.956;2022-12-18T04:36:05;48.40;;;25.33;;
22046;SDS011;11187;49.412;20.956;2022-12-18T04:38:39;43.28;;;24.30;;
22046;SDS011;11187;49.412;20.956;2022-12-18T04:41:32;49.00;;;23.98;;
22046;SDS011;11187;49.412;20.956;2022-12-18T04:44:26;58.08;;;25.13;;
22046;SDS011;11187;49.412;20.956;2022-12-18T04:47:03;55.63;;;25.73;;
22046;SDS011;11187;49.412;20.956;2022-12-18T04:49:56;42.70;;;22.67;;
22046;SDS011;11187;49.412;20.956;2022-12-18T04:52:30;36.17;;;22.88;;
22046;SDS011;11187;49.412;20.956;2022-12-18T04:55:16;42.38;;;22.60;;
22046;SDS011;11187;49.412;20.956;2022-12-18T04:57:50;38.00;;;20.13;;
22046;SDS011;11187;49.412;20.956;2022-12-18T05:00:29;64.03;;;25.88;;
22046;SDS011;11187;49.412;20.956;2022-12-18T05:03:09;44.50;;;21.92;;
22046;SDS011;11187;49.412;20.956;2022-12-18T05:05:43;41.47;;;20.38;;
22046;SDS011;11187;49.412;20.956;2022-12-18T05:08:36;49.05;;;23.42;;
22046;SDS011;11187;49.412;20.956;2022-12-18T05:11:32;49.63;;;23.40;;
22046;SDS011;11187;49.412;20.956;2022-12-18T05:14:26;45.47;;;25.48;;
22046;SDS011;11187;49.412;20.956;2022-12-18T05:17:20;42.22;;;22.63;;
22046;SDS011;11187;49.412;20.956;2022-12-18T05:19:54;44.65;;;23.52;;
22046;SDS011;11187;49.412;20.956;2022-12-18T05:22:40;47.30;;;24.63;;
22046;SDS011;11187;49.412;20.956;2022-12-18T05:25:14;49.08;;;25.25;;
22046;SDS011;11187;49.412;20.956;2022-12-18T05:28:00;43.28;;;23.50;;
22046;SDS011;11187;49.412;20.956;2022-12-18T05:30:37;42.17;;;23.50;;
22046;SDS011;11187;49.412;20.956;2022-12-18T05:33:24;50.55;;;23.98;;
22046;SDS011;11187;49.412;20.956;2022-12-18T05:36:00;42.58;;;21.08;;
22046;SDS011;11187;49.412;20.956;2022-12-18T05:38:47;48.05;;;23.42;;
22046;SDS011;11187;49.412;20.956;2022-12-18T05:41:21;39.28;;;21.10;;
22046;SDS011;11187;49.412;20.956;2022-12-18T05:44:08;32.65;;;21.70;;
22046;SDS011;11187;49.412;20.956;2022-12-18T05:46:44;37.97;;;21.88;;
22046;SDS011;11187;49.412;20.956;2022-12-18T05:49:30;41.97;;;23.45;;
22046;SDS011;11187;49.412;20.956;2022-12-18T05:52:04;37.50;;;24.10;;
22046;SDS011;11187;49.412;20.956;2022-12-18T05:54:50;44.63;;;20.67;;
22046;SDS011;11187;49.412;20.956;2022-12-18T05:57:24;48.22;;;23.90;;
22046;SDS011;11187;49.412;20.956;2022-12-18T06:00:10;38.38;;;22.95;;
22046;SDS011;11187;49.412;20.956;2022-12-18T06:02:47;44.45;;;23.33;;
22046;SDS011;11187;49.412;20.956;2022-12-18T06:05:42;38.53;;;20.98;;
22046;SDS011;11187;49.412;20.956;2022-12-18T06:08:36;37.13;;;22.52;;
22046;SDS011;11187;49.412;20.956;2022-12-18T06:11:12;40.95;;;22.50;;
22046;SDS011;11187;49.412;20.956;2022-12-18T06:14:06;49.50;;;22.45;;
22046;SDS011;11187;49.412;20.956;2022-12-18T06:16:59;44.72;;;20.20;;
22046;SDS011;11187;49.412;20.956;2022-12-18T06:19:53;47.97;;;20.30;;
22046;SDS011;11187;49.412;20.956;2022-12-18T06:22:27;38.88;;;18.83;;
22046;SDS011;11187;49.412;20.956;2022-12-18T06:25:14;43.58;;;20.77;;
22046;SDS011;11187;49.412;20.956;2022-12-18T06:27:48;38.08;;;21.63;;
22046;SDS011;11187;49.412;20.956;2022-12-18T06:30:45;47.15;;;19.90;;
22046;SDS011;11187;49.412;20.956;2022-12-18T06:33:39;36.90;;;18.80;;
22046;SDS011;11187;49.412;20.956;2022-12-18T06:36:13;38.90;;;18.25;;
22046;SDS011;11187;49.412;20.956;2022-12-18T06:39:07;39.10;;;20.27;;
22046;SDS011;11187;49.412;20.956;2022-12-18T06:41:41;30.73;;;17.80;;
22046;SDS011;11187;49.412;20.956;2022-12-18T06:44:34;40.80;;;20.38;;
22046;SDS011;11187;49.412;20.956;2022-12-18T06:47:08;37.22;;;20.38;;
22046;SDS011;11187;49.412;20.956;2022-12-18T06:50:02;29.02;;;21.60;;
22046;SDS011;11187;49.412;20.956;2022-12-18T06:52:55;33.28;;;20.25;;
22046;SDS011;11187;49.412;20.956;2022-12-18T06:55:29;39.97;;;21.27;;
22046;SDS011;11187;49.412;20.956;2022-12-18T06:58:22;32.42;;;20.77;;
22046;SDS011;11187;49.412;20.956;2022-12-18T07:00:59;33.35;;;23.23;;
22046;SDS011;11187;49.412;20.956;2022-12-18T07:03:51;33.85;;;22.90;;
22046;SDS011;11187;49.412;20.956;2022-12-18T07:06:27;35.88;;;20.92;;
22046;SDS011;11187;49.412;20.956;2022-12-18T07:09:20;36.28;;;22.45;;
22046;SDS011;11187;49.412;20.956;2022-12-18T07:12:14;38.92;;;22.27;;
22046;SDS011;11187;49.412;20.956;2022-12-18T07:14:48;36.60;;;22.08;;
22046;SDS011;11187;49.412;20.956;2022-12-18T07:17:41;37.17;;;23.30;;
22046;SDS011;11187;49.412;20.956;2022-12-18T07:20:35;30.83;;;21.45;;
22046;SDS011;11187;49.412;20.956;2022-12-18T07:23:09;35.70;;;21.33;;
22046;SDS011;11187;49.412;20.956;2022-12-18T07:25:48;41.97;;;22.58;;
22046;SDS011;11187;49.412;20.956;2022-12-18T07:28:28;36.15;;;21.75;;
22046;SDS011;11187;49.412;20.956;2022-12-18T07:31:10;30.38;;;20.75;;
22046;SDS011;11187;49.412;20.956;2022-12-18T07:33:56;33.63;;;22.92;;
22046;SDS011;11187;49.412;20.956;2022-12-18T07:36:50;34.05;;;20.02;;
22046;SDS011;11187;49.412;20.956;2022-12-18T07:39:44;30.33;;;17.75;;
22046;SDS011;11187;49.412;20.956;2022-12-18T07:42:31;32.30;;;21.17;;
22046;SDS011;11187;49.412;20.956;2022-12-18T07:45:25;29.33;;;18.67;;
22046;SDS011;11187;49.412;20.956;2022-12-18T07:47:59;29.13;;;19.80;;
22046;SDS011;11187;49.412;20.956;2022-12-18T07:50:45;37.38;;;18.70;;
22046;SDS011;11187;49.412;20.956;2022-12-18T07:53:19;31.55;;;17.98;;
22046;SDS011;11187;49.412;20.956;2022-12-18T07:56:07;29.67;;;19.45;;
22046;SDS011;11187;49.412;20.956;2022-12-18T07:58:57;37.97;;;21.27;;
22046;SDS011;11187;49.412;20.956;2022-12-18T08:01:51;34.05;;;19.95;;
22046;SDS011;11187;49.412;20.956;2022-12-18T08:04:45;29.20;;;20.10;;
22046;SDS011;11187;49.412;20.956;2022-12-18T08:07:19;31.00;;;20.25;;
22046;SDS011;11187;49.412;20.956;2022-12-18T08:10:06;27.77;;;19.27;;
22046;SDS011;11187;49.412;20.956;2022-12-18T08:12:40;36.13;;;19.65;;
22046;SDS011;11187;49.412;20.956;2022-12-18T08:15:36;24.95;;;18.60;;
22046;SDS011;11187;49.412;20.956;2022-12-18T08:18:34;34.08;;;20.55;;
22046;SDS011;11187;49.412;20.956;2022-12-18T08:21:12;37.45;;;19.40;;
22046;SDS011;11187;49.412;20.956;2022-12-18T08:24:00;33.50;;;20.05;;
22046;SDS011;11187;49.412;20.956;2022-12-18T08:26:37;33.30;;;18.48;;
22046;SDS011;11187;49.412;20.956;2022-12-18T08:29:43;33.97;;;19.02;;
22046;SDS011;11187;49.412;20.956;2022-12-18T08:32:17;33.28;;;18.38;;
22046;SDS011;11187;49.412;20.956;2022-12-18T08:34:58;29.13;;;18.48;;
22046;SDS011;11187;49.412;20.956;2022-12-18T08:37:37;30.77;;;19.27;;
22046;SDS011;11187;49.412;20.956;2022-12-18T08:40:11;33.28;;;20.75;;
22046;SDS011;11187;49.412;20.956;2022-12-18T08:42:58;34.45;;;20.25;;
22046;SDS011;11187;49.412;20.956;2022-12-18T08:45:50;32.13;;;20.08;;
22046;SDS011;11187;49.412;20.956;2022-12-18T08:48:36;27.17;;;18.95;;
22046;SDS011;11187;49.412;20.956;2022-12-18T08:51:10;31.98;;;19.67;;
22046;SDS011;11187;49.412;20.956;2022-12-18T08:53:56;32.28;;;19.80;;
22046;SDS011;11187;49.412;20.956;2022-12-18T08:56:31;28.33;;;18.73;;
22046;SDS011;11187;49.412;20.956;2022-12-18T08:59:18;25.98;;;18.30;;
22046;SDS011;11187;49.412;20.956;2022-12-18T09:01:55;29.98;;;20.02;;
22046;SDS011;11187;49.412;20.956;2022-12-18T09:04:42;35.45;;;21.15;;
22046;SDS011;11187;49.412;20.956;2022-12-18T09:07:22;33.42;;;20.58;;
22046;SDS011;11187;49.412;20.956;2022-12-18T09:10:09;25.38;;;18.92;;
22046;SDS011;11187;49.412;20.956;2022-12-18T09:12:44;27.67;;;17.20;;
22046;SDS011;11187;49.412;20.956;2022-12-18T09:15:41;34.05;;;21.38;;
22046;SDS011;11187;49.412;20.956;2022-12-18T09:18:16;29.50;;;18.25;;
22046;SDS011;11187;49.412;20.956;2022-12-18T09:21:12;28.75;;;18.88;;
22046;SDS011;11187;49.412;20.956;2022-12-18T09:24:15;33.15;;;18.70;;
22046;SDS011;11187;49.412;20.956;2022-12-18T09:26:52;30.55;;;20.10;;
22046;SDS011;11187;49.412;20.956;2022-12-18T09:29:39;29.05;;;20.85;;
22046;SDS011;11187;49.412;20.956;2022-12-18T09:32:13;25.08;;;20.60;;
22046;SDS011;11187;49.412;20.956;2022-12-18T09:35:00;27.45;;;21.95;;
22046;SDS011;11187;49.412;20.956;2022-12-18T09:37:37;33.55;;;20.75;;
22046;SDS011;11187;49.412;20.956;2022-12-18T09:40:25;27.77;;;20.30;;
22046;SDS011;11187;49.412;20.956;2022-12-18T09:43:32;27.20;;;20.60;;
22046;SDS011;11187;49.412;20.956;2022-12-18T09:46:15;29.98;;;19.90;;
22046;SDS011;11187;49.412;20.956;2022-12-18T09:49:16;28.90;;;18.48;;
22046;SDS011;11187;49.412;20.956;2022-12-18T09:51:53;24.67;;;18.85;;
22046;SDS011;11187;49.412;20.956;2022-12-18T09:54:45;32.33;;;19.13;;
22046;SDS011;11187;49.412;20.956;2022-12-18T09:57:28;24.77;;;18.70;;
22046;SDS011;11187;49.412;20.956;2022-12-18T10:00:20;27.52;;;20.83;;
22046;SDS011;11187;49.412;20.956;2022-12-18T10:03:00;29.42;;;18.58;;
22046;SDS011;11187;49.412;20.956;2022-12-18T10:08:49;34.45;;;20.20;;
22046;SDS011;11187;49.412;20.956;2022-12-18T10:12:32;25.98;;;17.70;;
22046;SDS011;11187;49.412;20.956;2022-12-18T10:15:50;29.23;;;16.98;;
22046;SDS011;11187;49.412;20.956;2022-12-18T10:28:18;25.55;;;19.00;;
22046;SDS011;11187;49.412;20.956;2022-12-18T10:31:17;23.67;;;18.75;;
22046;SDS011;11187;49.412;20.956;2022-12-18T10:33:55;23.73;;;18.02;;
22046;SDS011;11187;49.412;20.956;2022-12-18T10:36:48;24.17;;;18.75;;
22046;SDS011;11187;49.412;20.956;2022-12-18T10:39:42;25.30;;;17.08;;
22046;SDS011;11187;49.412;20.956;2022-12-18T10:42:19;25.98;;;17.70;;
22046;SDS011;11187;49.412;20.956;2022-12-18T10:47:46;26.92;;;18.50;;
22046;SDS011;11187;49.412;20.956;2022-12-18T10:50:35;30.15;;;18.33;;
22046;SDS011;11187;49.412;20.956;2022-12-18T10:53:30;29.60;;;17.08;;
22046;SDS011;11187;49.412;20.956;2022-12-18T10:56:19;29.63;;;19.83;;
22046;SDS011;11187;49.412;20.956;2022-12-18T10:59:06;27.98;;;20.02;;
22046;SDS011;11187;49.412;20.956;2022-12-18T11:02:07;27.77;;;19.05;;
22046;SDS011;11187;49.412;20.956;2022-12-18T11:04:59;28.95;;;19.85;;
22046;SDS011;11187;49.412;20.956;2022-12-18T11:07:54;30.33;;;19.55;;
22046;SDS011;11187;49.412;20.956;2022-12-18T11:10:47;34.00;;;20.38;;
22046;SDS011;11187;49.412;20.956;2022-12-18T11:13:22;30.88;;;20.92;;
22046;SDS011;11187;49.412;20.956;2022-12-18T11:16:17;30.73;;;20.40;;
22046;SDS011;11187;49.412;20.956;2022-12-18T11:18:52;28.25;;;20.50;;
22046;SDS011;11187;49.412;20.956;2022-12-18T11:21:39;20.83;;;18.42;;
22046;SDS011;11187;49.412;20.956;2022-12-18T11:24:17;25.70;;;18.55;;
22046;SDS011;11187;49.412;20.956;2022-12-18T11:27:17;27.23;;;19.33;;
22046;SDS011;11187;49.412;20.956;2022-12-18T11:29:51;29.65;;;19.08;;
22046;SDS011;11187;49.412;20.956;2022-12-18T11:32:39;28.05;;;19.58;;
22046;SDS011;11187;49.412;20.956;2022-12-18T11:38:24;46.67;;;21.98;;
22046;SDS011;11187;49.412;20.956;2022-12-18T11:41:27;37.83;;;20.77;;
22046;SDS011;11187;49.412;20.956;2022-12-18T11:44:46;34.05;;;21.05;;
22046;SDS011;11187;49.412;20.956;2022-12-18T11:47:56;40.13;;;22.85;;
22046;SDS011;11187;49.412;20.956;2022-12-18T11:50:49;48.63;;;23.85;;
22046;SDS011;11187;49.412;20.956;2022-12-18T11:53:37;55.80;;;26.60;;
22046;SDS011;11187;49.412;20.956;2022-12-18T12:20:20;30.33;;;20.67;;
22046;SDS011;11187;49.412;20.956;2022-12-18T12:38:25;21.90;;;17.60;;
22046;SDS011;11187;49.412;20.956;2022-12-18T12:41:27;24.38;;;16.90;;
22046;SDS011;11187;49.412;20.956;2022-12-18T12:44:44;25.05;;;17.02;;
22046;SDS011;11187;49.412;20.956;2022-12-18T12:47:42;30.02;;;20.45;;
22046;SDS011;11187;49.412;20.956;2022-12-18T12:50:18;21.77;;;17.40;;
22046;SDS011;11187;49.412;20.956;2022-12-18T12:53:07;23.13;;;15.32;;
22046;SDS011;11187;49.412;20.956;2022-12-18T12:55:47;25.08;;;16.60;;
22046;SDS011;11187;49.412;20.956;2022-12-18T13:04:35;25.27;;;17.83;;
22046;SDS011;11187;49.412;20.956;2022-12-18T13:07:16;18.98;;;16.50;;
22046;SDS011;11187;49.412;20.956;2022-12-18T13:12:56;27.40;;;17.02;;
22046;SDS011;11187;49.412;20.956;2022-12-18T13:16:05;24.88;;;17.42;;
22046;SDS011;11187;49.412;20.956;2022-12-18T13:18:59;21.65;;;17.83;;
22046;SDS011;11187;49.412;20.956;2022-12-18T13:21:33;24.00;;;17.30;;
22046;SDS011;11187;49.412;20.956;2022-12-18T13:24:27;20.27;;;17.80;;
22046;SDS011;11187;49.412;20.956;2022-12-18T13:27:32;25.83;;;17.08;;
22046;SDS011;11187;49.412;20.956;2022-12-18T13:48:36;21.65;;;17.60;;
22046;SDS011;11187;49.412;20.956;2022-12-18T13:51:32;30.45;;;18.45;;
22046;SDS011;11187;49.412;20.956;2022-12-18T13:54:17;25.60;;;18.10;;
22046;SDS011;11187;49.412;20.956;2022-12-18T13:57:25;32.03;;;20.70;;
22046;SDS011;11187;49.412;20.956;2022-12-18T14:00:23;79.28;;;30.73;;
22046;SDS011;11187;49.412;20.956;2022-12-18T14:03:21;91.03;;;34.72;;
22046;SDS011;11187;49.412;20.956;2022-12-18T14:06:21;108.68;;;40.25;;
22046;SDS011;11187;49.412;20.956;2022-12-18T14:08:57;114.72;;;44.28;;
22046;SDS011;11187;49.412;20.956;2022-12-18T14:11:48;60.83;;;31.08;;
22046;SDS011;11187;49.412;20.956;2022-12-18T14:14:22;85.43;;;41.53;;
22046;SDS011;11187;49.412;20.956;2022-12-18T14:17:12;75.43;;;38.38;;
22046;SDS011;11187;49.412;20.956;2022-12-18T14:19:47;63.85;;;32.60;;
22046;SDS011;11187;49.412;20.956;2022-12-18T14:22:36;93.50;;;39.83;;
22046;SDS011;11187;49.412;20.956;2022-12-18T14:25:14;192.50;;;62.38;;
22046;SDS011;11187;49.412;20.956;2022-12-18T14:30:44;100.75;;;41.88;;
22046;SDS011;11187;49.412;20.956;2022-12-18T14:33:31;98.30;;;43.05;;
22046;SDS011;11187;49.412;20.956;2022-12-18T14:36:05;65.72;;;32.08;;
22046;SDS011;11187;49.412;20.956;2022-12-18T14:39:00;57.25;;;31.63;;
22046;SDS011;11187;49.412;20.956;2022-12-18T14:41:34;55.70;;;31.88;;
22046;SDS011;11187;49.412;20.956;2022-12-18T14:44:20;56.15;;;33.45;;
22046;SDS011;11187;49.412;20.956;2022-12-18T14:47:15;37.35;;;28.00;;
22046;SDS011;11187;49.412;20.956;2022-12-18T14:49:55;40.25;;;27.70;;
22046;SDS011;11187;49.412;20.956;2022-12-18T14:52:37;39.47;;;25.60;;
22046;SDS011;11187;49.412;20.956;2022-12-18T14:55:17;39.22;;;26.35;;
22046;SDS011;11187;49.412;20.956;2022-12-18T14:58:13;51.47;;;28.88;;
22046;SDS011;11187;49.412;20.956;2022-12-18T15:01:17;48.95;;;28.63;;
22046;SDS011;11187;49.412;20.956;2022-12-18T15:03:52;34.35;;;25.95;;
22046;SDS011;11187;49.412;20.956;2022-12-18T15:06:46;46.67;;;28.60;;
22046;SDS011;11187;49.412;20.956;2022-12-18T15:09:41;45.17;;;29.17;;
22046;SDS011;11187;49.412;20.956;2022-12-18T15:12:22;47.05;;;30.25;;
22046;SDS011;11187;49.412;20.956;2022-12-18T15:21:09;59.58;;;32.30;;
22046;SDS011;11187;49.412;20.956;2022-12-18T15:24:13;58.92;;;32.53;;
22046;SDS011;11187;49.412;20.956;2022-12-18T15:26:51;56.70;;;32.13;;
22046;SDS011;11187;49.412;20.956;2022-12-18T15:29:37;45.85;;;24.15;;
22046;SDS011;11187;49.412;20.956;2022-12-18T15:32:17;52.25;;;31.05;;
22046;SDS011;11187;49.412;20.956;2022-12-18T15:35:20;49.97;;;29.17;;
22046;SDS011;11187;49.412;20.956;2022-12-18T15:37:55;53.38;;;31.52;;
22046;SDS011;11187;49.412;20.956;2022-12-18T15:40:48;46.92;;;30.15;;
22046;SDS011;11187;49.412;20.956;2022-12-18T15:43:43;43.40;;;28.25;;
22046;SDS011;11187;49.412;20.956;2022-12-18T15:46:37;60.60;;;35.80;;
22046;SDS011;11187;49.412;20.956;2022-12-18T15:49:31;83.70;;;40.88;;
22046;SDS011;11187;49.412;20.956;2022-12-18T15:52:05;76.65;;;33.88;;
22046;SDS011;11187;49.412;20.956;2022-12-18T15:54:51;75.85;;;35.08;;
22046;SDS011;11187;49.412;20.956;2022-12-18T15:57:43;54.35;;;33.88;;
22046;SDS011;11187;49.412;20.956;2022-12-18T16:00:30;62.92;;;31.90;;
22046;SDS011;11187;49.412;20.956;2022-12-18T16:03:04;57.67;;;31.13;;
22046;SDS011;11187;49.412;20.956;2022-12-18T16:05:51;58.17;;;33.17;;
22046;SDS011;11187;49.412;20.956;2022-12-18T16:08:25;148.38;;;51.28;;
22046;SDS011;11187;49.412;20.956;2022-12-18T16:11:23;101.15;;;41.22;;
22046;SDS011;11187;49.412;20.956;2022-12-18T16:17:05;66.55;;;27.40;;
22046;SDS011;11187;49.412;20.956;2022-12-18T16:19:42;55.30;;;30.33;;
22046;SDS011;11187;49.412;20.956;2022-12-18T16:22:29;55.35;;;30.45;;
22046;SDS011;11187;49.412;20.956;2022-12-18T16:25:02;69.82;;;31.50;;
22046;SDS011;11187;49.412;20.956;2022-12-18T16:27:50;73.18;;;33.35;;
22046;SDS011;11187;49.412;20.956;2022-12-18T16:30:31;127.53;;;49.90;;
22046;SDS011;11187;49.412;20.956;2022-12-18T16:33:24;82.20;;;39.45;;
22046;SDS011;11187;49.412;20.956;2022-12-18T16:36:18;77.85;;;35.17;;
22046;SDS011;11187;49.412;20.956;2022-12-18T16:38:52;67.82;;;31.95;;
22046;SDS011;11187;49.412;20.956;2022-12-18T16:41:39;66.65;;;30.75;;
22046;SDS011;11187;49.412;20.956;2022-12-18T16:44:33;50.40;;;28.17;;
22046;SDS011;11187;49.412;20.956;2022-12-18T16:47:27;43.05;;;24.33;;
22046;SDS011;11187;49.412;20.956;2022-12-18T16:50:00;52.13;;;25.08;;
22046;SDS011;11187;49.412;20.956;2022-12-18T16:52:46;48.33;;;27.65;;
22046;SDS011;11187;49.412;20.956;2022-12-18T16:55:20;49.00;;;26.92;;
22046;SDS011;11187;49.412;20.956;2022-12-18T16:58:06;48.40;;;29.55;;
22046;SDS011;11187;49.412;20.956;2022-12-18T17:00:40;60.92;;;31.63;;
22046;SDS011;11187;49.412;20.956;2022-12-18T17:03:34;56.25;;;28.98;;
22046;SDS011;11187;49.412;20.956;2022-12-18T17:06:28;48.97;;;25.30;;
22046;SDS011;11187;49.412;20.956;2022-12-18T17:09:05;59.63;;;27.63;;
22046;SDS011;11187;49.412;20.956;2022-12-18T17:11:54;56.78;;;28.98;;
22046;SDS011;11187;49.412;20.956;2022-12-18T17:14:30;51.75;;;25.77;;
22046;SDS011;11187;49.412;20.956;2022-12-18T17:17:18;53.85;;;27.63;;
22046;SDS011;11187;49.412;20.956;2022-12-18T17:19:51;55.40;;;26.20;;
22046;SDS011;11187;49.412;20.956;2022-12-18T17:22:38;45.75;;;26.02;;
22046;SDS011;11187;49.412;20.956;2022-12-18T17:25:11;42.58;;;22.60;;
22046;SDS011;11187;49.412;20.956;2022-12-18T17:28:06;48.75;;;28.73;;
22046;SDS011;11187;49.412;20.956;2022-12-18T17:30:42;60.28;;;25.90;;
22046;SDS011;11187;49.412;20.956;2022-12-18T17:33:36;54.70;;;26.85;;
22046;SDS011;11187;49.412;20.956;2022-12-18T17:36:10;51.85;;;25.20;;
22046;SDS011;11187;49.412;20.956;2022-12-18T17:38:59;35.28;;;21.73;;
22046;SDS011;11187;49.412;20.956;2022-12-18T17:41:33;44.33;;;24.27;;
22046;SDS011;11187;49.412;20.956;2022-12-18T17:44:20;49.78;;;25.95;;
22046;SDS011;11187;49.412;20.956;2022-12-18T17:46:53;53.97;;;25.60;;
22046;SDS011;11187;49.412;20.956;2022-12-18T17:49:40;41.72;;;22.17;;
22046;SDS011;11187;49.412;20.956;2022-12-18T17:52:13;37.55;;;21.25;;